Accueil
METAR-TAF:

METAR-TAF

Aéroports :

Lydd, Angleterre

Aéroport de Lydd

latitude: 50-57N, longitude: 000-56E, altitude: 3 m

Observation

Le bulletin a été fait il y a 32 minutes, à 07:50 UTC
Vent 9 kt de ouest/sud-ouest
Température 4°C
Humidité 87%
Pression 1024 hPa
Visibilité 10 km ou plus

METAR: EGMD 180750Z AUTO 25009KT 9999 BKN042/// 04/02 Q1024

Heure: 08:22 (08:22 UTC)

Prévision

Le bulletin a été fait il y a 37 minutes, à 07:45 UTC
Prévision valable du 18 à 07 UTC au 18 à 15 UTC
Vent 5 kt de ouest
Visibilité 10 km ou plus
Nuages fragmentés à une hauteur de 3500 ft
Probabilité 40% :
Temporairement
du 18 à 13 UTC au 18 à 15 UTC
Visibilité: 4000 m
Nuages fragmentés à une hauteur de 800 ft
pluie, bruine

TAF: EGMD 180745Z 1807/1815 26005KT 9999 BKN035 PROB40 TEMPO 1813/1815 4000 RADZ BKN008

Observations et prévisions météorologiques de plus de 4000 aéroports (messages METAR et TAF).

Les stations disponibles sont représentées par des disques jaunes et rouges sur la carte.

Passer la souris dessus pour voir le nom de la station.

Cliquer dessus pour voir les observations et prévisions météorologiques.

Pour changer de carte: cliquez sur les boutons verts avec une croix noire pour zoomer, sur le bouton vert avec un tiret pour effectuer un zoom arrière, ou sur les flèches vertes pour les cartes adjacentes.


METAR-TAF: